createdAt,value
2022-09-10T00:00:56.208Z,1.20
2022-09-10T00:03:23.069Z,1.00
2022-09-10T00:05:49.650Z,1.05
2022-09-10T00:08:16.658Z,1.02
2022-09-10T00:10:44.863Z,1.13
2022-09-10T00:13:11.648Z,0.82
2022-09-10T00:15:41.390Z,1.02
2022-09-10T00:18:09.403Z,0.65
2022-09-10T00:20:47.164Z,0.90
2022-09-10T00:23:14.188Z,1.00
2022-09-10T00:25:40.522Z,0.82
2022-09-10T00:28:08.992Z,1.00
2022-09-10T00:30:46.106Z,0.93
2022-09-10T00:33:13.177Z,1.10
2022-09-10T00:35:42.600Z,0.70
2022-09-10T00:38:10.344Z,1.00
2022-09-10T00:40:37.275Z,0.90
2022-09-10T00:43:03.818Z,0.90
2022-09-10T00:45:31.488Z,1.13
2022-09-10T00:48:00.997Z,0.80
2022-09-10T00:50:29.593Z,1.10
2022-09-10T00:52:57.981Z,1.02
2022-09-10T00:55:24.671Z,0.77
2022-09-10T00:57:54.742Z,0.88
2022-09-10T01:00:21.538Z,0.82
2022-09-10T01:02:48.330Z,0.90
2022-09-10T01:05:15.144Z,0.90
2022-09-10T01:07:42.815Z,0.95
2022-09-10T01:10:14.520Z,0.95
2022-09-10T01:12:59.361Z,0.90
2022-09-10T01:15:40.939Z,0.88
2022-09-10T01:18:36.748Z,0.98
2022-09-10T01:21:15.069Z,1.48
2022-09-10T01:23:59.660Z,0.90
2022-09-10T01:26:43.245Z,0.80
2022-09-10T01:29:18.107Z,1.02
2022-09-10T01:31:55.508Z,0.70
2022-09-10T01:34:24.883Z,0.90
2022-09-10T01:36:53.514Z,0.88
2022-09-10T01:39:20.897Z,0.82
2022-09-10T01:41:48.309Z,0.80
2022-09-10T01:44:33.192Z,1.00
2022-09-10T01:47:08.111Z,0.70
2022-09-10T01:49:36.474Z,0.77
2022-09-10T01:52:22.185Z,0.88
2022-09-10T01:55:07.179Z,0.82
2022-09-10T01:57:50.269Z,0.80
2022-09-10T02:00:17.803Z,0.90
2022-09-10T02:02:48.000Z,0.98
2022-09-10T02:05:16.852Z,1.08
2022-09-10T02:07:44.945Z,1.00
2022-09-10T02:10:11.322Z,1.02
2022-09-10T02:12:39.945Z,0.80
2022-09-10T02:15:08.263Z,0.90
2022-09-10T02:17:36.303Z,1.00
2022-09-10T02:20:04.491Z,1.30
2022-09-10T02:22:32.480Z,1.10
2022-09-10T02:24:58.759Z,1.10
2022-09-10T02:27:25.199Z,1.10
2022-09-10T02:29:51.971Z,0.82
2022-09-10T02:32:18.338Z,1.00
2022-09-10T02:34:44.623Z,1.25
2022-09-10T02:37:11.134Z,0.80
2022-09-10T02:39:37.519Z,1.20
2022-09-10T02:42:04.042Z,1.08
2022-09-10T02:44:30.313Z,0.90
2022-09-10T02:46:58.552Z,0.80
2022-09-10T02:49:24.907Z,0.80
2022-09-10T02:51:51.664Z,0.98
2022-09-10T02:54:19.892Z,0.80
2022-09-10T02:56:48.411Z,1.08
2022-09-10T02:59:14.680Z,1.00
2022-09-10T03:01:41.028Z,0.70
2022-09-10T03:04:08.261Z,0.80
2022-09-10T03:06:34.603Z,1.00
2022-09-10T03:09:02.073Z,0.80
2022-09-10T03:11:28.501Z,1.17
2022-09-10T03:13:55.349Z,0.70
2022-09-10T03:16:21.703Z,0.80
2022-09-10T03:18:48.002Z,0.60
2022-09-10T03:21:15.762Z,0.90
2022-09-10T03:23:42.722Z,0.88
2022-09-10T03:26:10.153Z,0.90
2022-09-10T03:28:37.543Z,0.82
2022-09-10T03:31:04.784Z,1.00
2022-09-10T03:33:31.144Z,0.70
2022-09-10T03:35:57.416Z,0.90
2022-09-10T03:38:23.910Z,0.60
2022-09-10T03:40:50.488Z,0.90
2022-09-10T03:43:17.261Z,0.80
2022-09-10T03:45:44.384Z,0.80
2022-09-10T03:48:11.131Z,0.70
2022-09-10T03:50:37.414Z,0.60
2022-09-10T03:53:03.987Z,0.60
2022-09-10T03:55:30.487Z,0.55
2022-09-10T03:57:58.459Z,0.98
2022-09-10T04:00:24.749Z,0.47
2022-09-10T04:02:51.065Z,0.70
2022-09-10T04:05:17.504Z,0.50
2022-09-10T04:07:43.993Z,0.50
2022-09-10T04:10:10.959Z,0.63
2022-09-10T04:12:37.317Z,0.50
2022-09-10T04:15:04.550Z,0.47
2022-09-10T04:17:30.906Z,0.63
2022-09-10T04:19:57.236Z,0.60
2022-09-10T04:22:24.805Z,0.60
2022-09-10T04:24:51.302Z,0.57
2022-09-10T04:27:17.603Z,0.50
2022-09-10T04:29:44.057Z,0.60
2022-09-10T04:32:10.342Z,0.75
2022-09-10T04:34:36.636Z,0.50
2022-09-10T04:37:02.963Z,0.68
2022-09-10T04:39:29.256Z,0.70
2022-09-10T04:41:55.665Z,0.63
2022-09-10T04:44:21.990Z,0.50
2022-09-10T04:46:48.302Z,0.50
2022-09-10T04:49:14.599Z,0.57
2022-09-10T04:51:40.967Z,0.80
2022-09-10T04:54:07.554Z,0.85
2022-09-10T04:56:34.735Z,0.60
2022-09-10T04:59:01.282Z,0.60
2022-09-10T05:01:28.979Z,0.47
2022-09-10T05:03:55.260Z,0.75
2022-09-10T05:06:21.542Z,0.70
2022-09-10T05:08:48.060Z,0.70
2022-09-10T05:11:14.473Z,0.55
2022-09-10T05:13:41.584Z,0.95
2022-09-10T05:16:08.019Z,0.70
2022-09-10T05:18:34.508Z,0.63
2022-09-10T05:21:00.856Z,0.63
2022-09-10T05:23:27.220Z,0.75
2022-09-10T05:25:54.024Z,0.70
2022-09-10T05:28:21.888Z,0.60
2022-09-10T05:30:51.805Z,0.70
2022-09-10T05:33:18.322Z,0.65
2022-09-10T05:35:44.632Z,0.47
2022-09-10T05:38:11.802Z,0.85
2022-09-10T05:40:38.220Z,0.70
2022-09-10T05:43:04.648Z,0.80
2022-09-10T05:45:31.076Z,0.70
2022-09-10T05:47:57.360Z,0.52
2022-09-10T05:50:23.719Z,0.70
2022-09-10T05:52:50.022Z,0.90
2022-09-10T05:55:16.447Z,0.70
2022-09-10T05:57:42.808Z,0.60
2022-09-10T06:00:09.798Z,0.80
2022-09-10T06:02:36.537Z,0.90
2022-09-10T06:05:03.143Z,0.70
2022-09-10T06:07:30.460Z,0.80
2022-09-10T06:09:57.642Z,0.80
2022-09-10T06:12:24.071Z,0.60
2022-09-10T06:14:50.343Z,1.00
2022-09-10T06:17:17.754Z,0.68
2022-09-10T06:19:44.597Z,0.70
2022-09-10T06:22:11.379Z,0.80
2022-09-10T06:24:38.039Z,0.80
2022-09-10T06:27:05.448Z,0.70
2022-09-10T06:29:33.094Z,0.77
2022-09-10T06:32:00.167Z,0.82
2022-09-10T06:34:26.691Z,1.08
2022-09-10T06:36:53.426Z,0.77
2022-09-10T06:39:19.751Z,0.63
2022-09-10T06:41:49.612Z,0.73
2022-09-10T06:44:16.288Z,1.00
2022-09-10T06:49:32.644Z,0.90
2022-09-10T06:51:59.018Z,0.73
2022-09-10T06:54:26.441Z,0.90
2022-09-10T06:56:52.828Z,0.90
2022-09-10T06:59:19.358Z,1.00
2022-09-10T07:01:47.415Z,1.10
2022-09-10T07:04:14.180Z,1.10
2022-09-10T07:06:40.725Z,1.00
2022-09-10T07:09:07.122Z,0.90
2022-09-10T07:11:36.855Z,0.95
2022-09-10T07:14:06.022Z,1.10
2022-09-10T07:16:32.415Z,1.05
2022-09-10T07:18:59.579Z,0.98
2022-09-10T07:21:28.407Z,1.05
2022-09-10T07:23:55.786Z,1.20
2022-09-10T07:26:22.115Z,1.15
2022-09-10T07:28:48.785Z,0.80
2022-09-10T07:31:16.751Z,0.73
2022-09-10T07:33:43.623Z,1.20
2022-09-10T07:36:12.238Z,0.90
2022-09-10T07:38:39.413Z,1.02
2022-09-10T07:41:06.835Z,1.05
2022-09-10T07:43:33.289Z,1.00
2022-09-10T07:46:04.000Z,0.70
2022-09-10T07:48:30.626Z,0.85
2022-09-10T07:51:03.860Z,0.77
2022-09-10T07:53:30.358Z,1.10
2022-09-10T07:56:01.054Z,0.98
2022-09-10T07:58:31.404Z,0.70
2022-09-10T08:01:01.793Z,0.80
2022-09-10T08:03:29.115Z,1.00
2022-09-10T08:05:55.607Z,0.70
2022-09-10T08:08:22.366Z,0.80
2022-09-10T08:10:49.707Z,1.00
2022-09-10T08:13:16.150Z,0.88
2022-09-10T08:15:44.331Z,1.02
2022-09-10T08:18:11.782Z,0.75
2022-09-10T08:20:40.025Z,0.95
2022-09-10T08:23:07.096Z,0.73
2022-09-10T08:25:33.597Z,1.10
2022-09-10T08:28:00.842Z,0.82
2022-09-10T08:30:27.273Z,0.95
2022-09-10T08:32:54.721Z,0.88
2022-09-10T08:35:21.045Z,1.15
2022-09-10T08:37:47.834Z,1.20
2022-09-10T08:40:14.717Z,1.15
2022-09-10T08:42:44.902Z,1.05
2022-09-10T08:45:18.050Z,0.60
2022-09-10T08:47:56.395Z,0.60
2022-09-10T08:50:27.185Z,0.60
2022-09-10T08:52:56.390Z,0.95
2022-09-10T08:55:22.641Z,0.70
2022-09-10T08:57:51.457Z,0.77
2022-09-10T09:00:19.641Z,0.75
2022-09-10T09:02:52.240Z,0.80
2022-09-10T09:05:20.479Z,1.00
2022-09-10T09:07:48.273Z,0.90
2022-09-10T09:10:17.633Z,0.80
2022-09-10T09:13:07.221Z,0.80
2022-09-10T09:15:41.676Z,0.73
2022-09-10T09:18:15.426Z,0.73
2022-09-10T09:20:43.642Z,0.80
2022-09-10T09:23:22.356Z,1.10
2022-09-10T09:25:48.971Z,1.08
2022-09-10T09:28:33.861Z,0.80
2022-09-10T09:31:06.316Z,0.70
2022-09-10T09:33:35.316Z,0.90
2022-09-10T09:36:03.089Z,0.80
2022-09-10T09:38:43.961Z,0.88
2022-09-10T09:41:19.690Z,0.88
2022-09-10T09:46:17.411Z,0.60
2022-09-10T09:48:44.637Z,0.85
2022-09-10T09:51:13.493Z,0.90
2022-09-10T09:53:41.585Z,0.85
2022-09-10T09:56:19.740Z,0.80
2022-09-10T10:01:14.538Z,0.60
2022-09-10T10:03:43.955Z,0.98
2022-09-10T10:06:11.166Z,1.10
2022-09-10T10:08:41.312Z,1.27
2022-09-10T10:11:10.851Z,1.50
2022-09-10T10:13:37.521Z,1.50
2022-09-10T10:16:33.803Z,0.90
2022-09-10T10:19:00.247Z,0.80
2022-09-10T10:21:29.264Z,0.63
2022-09-10T10:23:55.546Z,1.10
2022-09-10T10:26:23.035Z,1.48
2022-09-10T10:28:55.346Z,0.90
2022-09-10T10:31:21.730Z,0.90
2022-09-10T10:34:15.096Z,0.80
2022-09-10T10:37:00.042Z,1.17
2022-09-10T10:39:32.392Z,1.10
2022-09-10T10:42:07.201Z,0.90
2022-09-10T10:44:39.366Z,0.83
2022-09-10T10:47:24.727Z,0.85
2022-09-10T10:50:03.310Z,0.73
2022-09-10T10:52:38.240Z,1.00
2022-09-10T10:55:16.920Z,0.85
2022-09-10T10:57:52.498Z,0.80
2022-09-10T11:00:19.767Z,0.73
2022-09-10T11:02:54.561Z,0.82
2022-09-10T11:05:31.771Z,0.90
2022-09-10T11:08:19.980Z,1.05
2022-09-10T11:10:56.161Z,0.90
2022-09-10T11:13:31.535Z,0.80
2022-09-10T11:16:05.492Z,0.63
2022-09-10T11:18:34.268Z,0.80
2022-09-10T11:21:04.453Z,0.95
2022-09-10T11:23:45.845Z,0.80
2022-09-10T11:26:15.272Z,0.80
2022-09-10T11:28:50.930Z,0.65
2022-09-10T11:31:30.504Z,0.65
2022-09-10T11:34:04.389Z,0.82
2022-09-10T11:36:33.485Z,0.70
2022-09-10T11:39:03.243Z,0.65
2022-09-10T11:41:31.190Z,1.27
2022-09-10T11:44:03.525Z,0.90
2022-09-10T11:46:33.668Z,0.85
2022-09-10T11:49:06.963Z,0.70
2022-09-10T11:51:36.899Z,0.70
2022-09-10T11:54:11.238Z,0.90
2022-09-10T11:56:57.482Z,0.88
2022-09-10T11:59:24.268Z,0.90
2022-09-10T12:02:03.055Z,0.80
2022-09-10T12:04:39.730Z,1.13
2022-09-10T12:07:25.867Z,0.80
2022-09-10T12:09:55.286Z,0.82
2022-09-10T12:12:25.468Z,0.70
2022-09-10T12:14:52.122Z,0.80
2022-09-10T12:17:23.976Z,0.77
2022-09-10T12:19:53.795Z,0.82
2022-09-10T12:22:31.885Z,0.68
2022-09-10T12:25:03.106Z,0.68
2022-09-10T12:27:48.925Z,0.80
2022-09-10T12:30:33.722Z,0.77
2022-09-10T12:33:01.862Z,0.70
2022-09-10T12:35:31.184Z,0.80
2022-09-10T12:38:17.764Z,0.90
2022-09-10T12:40:49.784Z,0.73
2022-09-10T12:43:35.282Z,1.02
2022-09-10T12:46:02.234Z,0.77
2022-09-10T12:48:29.825Z,0.60
2022-09-10T12:51:00.623Z,0.90
2022-09-10T12:53:31.229Z,0.65
2022-09-10T12:56:02.160Z,0.60
2022-09-10T12:58:47.353Z,0.85
2022-09-10T13:01:18.569Z,0.90
2022-09-10T13:03:54.693Z,0.57
2022-09-10T13:06:33.414Z,0.70
2022-09-10T13:08:59.796Z,0.60
2022-09-10T13:11:26.914Z,0.80
2022-09-10T13:13:53.512Z,1.33
2022-09-10T13:16:26.416Z,1.50
2022-09-10T13:18:56.924Z,1.70
2022-09-10T13:21:23.439Z,1.70
2022-09-10T13:23:53.419Z,1.45
2022-09-10T13:26:29.070Z,1.98
2022-09-10T13:36:15.425Z,0.95
2022-09-10T13:38:54.093Z,0.80
2022-09-10T13:41:48.486Z,1.05
2022-09-10T13:44:26.736Z,1.35
2022-09-10T13:46:55.251Z,1.20
2022-09-10T13:49:36.144Z,1.17
2022-09-10T13:52:04.614Z,1.50
2022-09-10T13:54:35.803Z,1.52
2022-09-10T13:57:18.509Z,1.77
2022-09-10T13:59:48.390Z,1.50
2022-09-10T14:02:16.050Z,2.00
2022-09-10T14:04:45.084Z,1.33
2022-09-10T14:07:14.333Z,1.83
2022-09-10T14:09:41.529Z,1.50
2022-09-10T14:12:08.942Z,1.40
2022-09-10T14:14:36.652Z,1.30
2022-09-10T14:17:05.438Z,0.90
2022-09-10T14:19:42.425Z,1.40
2022-09-10T14:22:13.995Z,0.85
2022-09-10T14:24:40.281Z,0.65
2022-09-10T14:27:23.985Z,0.75
2022-09-10T14:29:50.474Z,0.55
2022-09-10T14:32:27.204Z,0.57
2022-09-10T14:34:53.636Z,1.25
2022-09-10T14:37:26.187Z,0.80
2022-09-10T14:39:52.603Z,0.90
2022-09-10T14:42:27.289Z,0.90
2022-09-10T14:44:54.337Z,0.80
2022-09-10T14:47:29.922Z,0.82
2022-09-10T14:52:24.025Z,0.88
2022-09-10T14:54:50.411Z,1.02
2022-09-10T14:57:17.042Z,1.00
2022-09-10T14:59:44.601Z,0.88
2022-09-10T15:02:19.635Z,1.10
2022-09-10T15:04:46.079Z,0.98
2022-09-10T15:07:13.612Z,0.93
2022-09-10T15:09:40.888Z,0.82
2022-09-10T15:12:17.402Z,0.90
2022-09-10T15:14:43.909Z,0.98
2022-09-10T15:17:13.843Z,0.80
2022-09-10T15:19:40.192Z,0.90
2022-09-10T15:22:06.499Z,0.80
2022-09-10T15:24:47.284Z,0.90
2022-09-10T15:27:19.494Z,0.60
2022-09-10T15:29:45.783Z,0.60
2022-09-10T15:32:15.993Z,0.40
2022-09-10T15:34:43.397Z,0.20
2022-09-10T15:37:09.818Z,0.40
2022-09-10T15:39:39.256Z,0.30
2022-09-10T15:42:06.157Z,0.20
2022-09-10T15:44:35.507Z,0.38
2022-09-10T15:47:02.240Z,0.35
2022-09-10T15:49:29.721Z,0.30
2022-09-10T15:51:56.715Z,0.40
2022-09-10T15:54:23.768Z,0.32
2022-09-10T15:56:50.669Z,0.20
2022-09-10T15:59:17.407Z,0.30
2022-09-10T16:01:43.864Z,0.40
2022-09-10T16:04:10.315Z,0.30
2022-09-10T16:06:38.146Z,0.50
2022-09-10T16:09:06.283Z,0.40
2022-09-10T16:11:33.727Z,0.50
2022-09-10T16:14:04.915Z,0.50
2022-09-10T16:16:31.982Z,0.40
2022-09-10T16:18:58.529Z,0.40
2022-09-10T16:21:26.420Z,0.45
2022-09-10T16:23:54.632Z,0.60
2022-09-10T16:26:23.334Z,0.40
2022-09-10T16:28:57.807Z,0.30
2022-09-10T16:31:27.349Z,0.40
2022-09-10T16:33:55.170Z,0.50
2022-09-10T16:36:23.600Z,0.60
2022-09-10T16:38:54.718Z,0.50
2022-09-10T16:41:22.480Z,0.43
2022-09-10T16:43:49.285Z,0.60
2022-09-10T16:46:17.406Z,0.63
2022-09-10T16:58:45.033Z,0.60
2022-09-10T17:01:16.075Z,0.52
2022-09-10T17:04:24.649Z,0.55
2022-09-10T18:04:26.231Z,0.60
2022-09-10T18:14:28.031Z,0.82
2022-09-10T18:30:21.251Z,0.60
2022-09-10T18:33:06.045Z,0.65
2022-09-10T18:39:04.040Z,1.00
2022-09-10T18:49:20.931Z,1.02
2022-09-10T18:52:01.079Z,0.90
2022-09-10T19:00:11.326Z,1.25
2022-09-10T19:03:13.183Z,0.98
2022-09-10T19:05:39.917Z,0.85
2022-09-10T19:08:12.271Z,0.90
2022-09-10T19:10:41.187Z,0.98
2022-09-10T19:13:35.449Z,1.02
2022-09-10T19:16:33.802Z,0.90
2022-09-10T19:19:16.690Z,1.50
2022-09-10T19:25:32.502Z,1.80
2022-09-10T19:31:39.739Z,1.30
2022-09-10T19:34:10.989Z,1.00
2022-09-10T19:36:39.699Z,1.00
2022-09-10T19:39:10.536Z,1.10
2022-09-10T19:41:39.053Z,1.30
2022-09-10T19:44:10.868Z,1.33
2022-09-10T19:46:38.683Z,1.27
2022-09-10T19:49:05.718Z,1.50
2022-09-10T19:51:45.964Z,1.48
2022-09-10T19:54:12.443Z,1.40
2022-09-10T19:56:45.142Z,1.50
2022-09-10T19:59:17.213Z,1.80
2022-09-10T20:01:46.052Z,1.50
2022-09-10T20:04:19.996Z,1.58
2022-09-10T20:06:47.829Z,1.70
2022-09-10T20:09:23.668Z,1.60
2022-09-10T20:11:57.314Z,1.60
2022-09-10T20:14:24.556Z,1.58
2022-09-10T20:16:51.324Z,1.75
2022-09-10T20:19:26.360Z,1.63
2022-09-10T20:21:52.811Z,1.67
2022-09-10T20:24:19.165Z,1.58
2022-09-10T20:26:46.666Z,1.77
2022-09-10T20:29:14.671Z,1.67
2022-09-10T20:31:41.588Z,2.08
2022-09-10T20:34:10.214Z,2.13
2022-09-10T20:36:38.174Z,1.70
2022-09-10T20:39:08.617Z,2.00
2022-09-10T20:41:35.197Z,2.05
2022-09-10T20:44:01.707Z,1.55
2022-09-10T20:46:32.257Z,1.80
2022-09-10T20:49:03.200Z,2.15
2022-09-10T20:51:48.985Z,2.10
2022-09-10T20:54:25.590Z,1.95
2022-09-10T20:57:03.828Z,1.80
2022-09-10T20:59:32.816Z,2.03
2022-09-10T21:02:19.433Z,2.13
2022-09-10T21:07:48.081Z,1.92
2022-09-10T21:10:43.319Z,1.65
2022-09-10T21:13:16.763Z,1.80
2022-09-10T21:15:43.522Z,2.33
2022-09-10T21:18:10.218Z,1.98
2022-09-10T21:20:42.949Z,1.80
2022-09-10T21:23:12.364Z,2.03
2022-09-10T21:25:51.055Z,2.22
2022-09-10T21:28:17.468Z,2.00
2022-09-10T21:30:47.915Z,1.88
2022-09-10T21:33:16.635Z,2.40
2022-09-10T21:35:42.997Z,2.17
2022-09-10T21:38:11.448Z,2.35
2022-09-10T21:40:40.213Z,2.40
2022-09-10T21:43:06.566Z,2.30
2022-09-10T21:45:35.671Z,2.25
2022-09-10T21:48:04.777Z,2.25
2022-09-10T21:50:31.305Z,2.40
2022-09-10T21:52:58.533Z,2.50
2022-09-10T21:55:24.877Z,2.90
2022-09-10T21:57:51.228Z,2.80
2022-09-10T22:00:18.964Z,2.30
2022-09-10T22:02:45.481Z,2.80
2022-09-10T22:05:11.855Z,2.97
2022-09-10T22:07:38.164Z,2.80
2022-09-10T22:10:06.718Z,3.17
2022-09-10T22:12:33.045Z,3.08
2022-09-10T22:14:59.372Z,3.33
2022-09-10T22:17:26.256Z,3.30
2022-09-10T22:19:52.779Z,3.00
2022-09-10T22:22:19.077Z,3.35
2022-09-10T22:24:45.382Z,3.47
2022-09-10T22:27:11.662Z,3.25
2022-09-10T22:29:38.129Z,3.30
2022-09-10T22:32:04.860Z,3.30
2022-09-10T22:34:31.261Z,3.08
2022-09-10T22:36:57.631Z,3.17
2022-09-10T22:39:24.090Z,2.78
2022-09-10T22:41:51.104Z,3.35
2022-09-10T22:44:17.888Z,2.85
2022-09-10T22:46:44.325Z,3.13
2022-09-10T22:49:10.923Z,3.15
2022-09-10T22:51:39.816Z,3.30
2022-09-10T22:54:06.823Z,3.20
2022-09-10T22:56:35.266Z,3.30
2022-09-10T22:59:02.031Z,3.80
2022-09-10T23:01:31.058Z,3.63
2022-09-10T23:03:58.264Z,3.90
2022-09-10T23:06:26.365Z,3.90
2022-09-10T23:08:53.942Z,3.88
2022-09-10T23:11:21.207Z,3.92
2022-09-10T23:13:50.783Z,3.78
2022-09-10T23:16:21.583Z,3.95
2022-09-10T23:18:50.485Z,4.05
2022-09-10T23:21:18.039Z,3.80
2022-09-10T23:23:44.929Z,4.22
2022-09-10T23:26:11.326Z,4.20
2022-09-10T23:28:37.900Z,3.88
2022-09-10T23:31:08.429Z,3.78
2022-09-10T23:33:34.958Z,3.60
2022-09-10T23:36:03.073Z,3.42
2022-09-10T23:38:31.182Z,3.53
2022-09-10T23:40:59.209Z,3.13
2022-09-10T23:43:25.685Z,3.22
2022-09-10T23:45:52.149Z,3.03
2022-09-10T23:48:18.449Z,2.90
2022-09-10T23:50:44.789Z,2.75
2022-09-10T23:53:11.103Z,2.60
2022-09-10T23:55:37.386Z,2.45
2022-09-10T23:58:03.909Z,3.03
